Time;durP1;ratioP1;P1;durP2;ratioP2;P2;SDS_P1;SDS_P2;PMS_P1;PMS_P2;Temp;Humidity;BMP_temperature;BMP_pressure;BME280_temperature;BME280_humidity;BME280_pressure;Samples;Min_cycle;Max_cycle;Signal;HPM_P1;HPM_P2
2023/09/24 00:00:13;;;;;;;20.13;10.88;;;;;;;;;;5112324;28;20773;-45
2023/09/24 00:03:00;;;;;;;22.40;11.13;;;;;;;;;;5112878;28;20209;-46
2023/09/24 00:05:28;;;;;;;17.13;10.95;;;;;;;;;;5111565;28;20229;-46
2023/09/24 00:07:56;;;;;;;19.67;12.02;;;;;;;;;;5111310;28;20202;-48
2023/09/24 00:10:24;;;;;;;23.63;11.90;;;;;;;;;;5111396;28;20293;-48
2023/09/24 00:12:52;;;;;;;23.48;11.82;;;;;;;;;;5111624;28;20201;-46
2023/09/24 00:15:19;;;;;;;19.58;11.90;;;;;;;;;;5111720;28;20202;-46
2023/09/24 00:17:46;;;;;;;17.92;11.15;;;;;;;;;;5111407;28;20234;-46
2023/09/24 00:20:16;;;;;;;19.02;11.23;;;;;;;;;;5113473;28;20293;-46
2023/09/24 00:22:44;;;;;;;19.50;11.38;;;;;;;;;;5113342;28;20194;-46
2023/09/24 00:25:11;;;;;;;18.27;10.82;;;;;;;;;;5113199;28;20251;-46
2023/09/24 00:27:38;;;;;;;25.38;11.63;;;;;;;;;;5113216;28;20213;-45
2023/09/24 00:30:06;;;;;;;17.30;11.05;;;;;;;;;;5113505;28;20284;-46
2023/09/24 00:32:35;;;;;;;17.50;11.82;;;;;;;;;;5115380;28;20251;-46
2023/09/24 00:35:05;;;;;;;20.55;10.85;;;;;;;;;;5115578;28;20675;-45
2023/09/24 00:37:33;;;;;;;19.45;11.82;;;;;;;;;;5116229;28;20240;-46
2023/09/24 00:40:02;;;;;;;17.45;11.70;;;;;;;;;;5115912;28;20194;-45
2023/09/24 00:42:31;;;;;;;18.70;11.93;;;;;;;;;;5116781;28;20800;-45
2023/09/24 00:45:03;;;;;;;17.13;11.07;;;;;;;;;;5116650;28;20729;-46
2023/09/24 00:47:31;;;;;;;18.10;10.98;;;;;;;;;;5116759;28;20201;-47
2023/09/24 00:49:59;;;;;;;18.48;11.88;;;;;;;;;;5115403;28;20209;-46
2023/09/24 00:52:26;;;;;;;18.63;11.90;;;;;;;;;;5115496;28;20198;-47
2023/09/24 00:54:53;;;;;;;18.40;11.63;;;;;;;;;;5116460;28;20202;-46
2023/09/24 00:57:21;;;;;;;17.98;11.00;;;;;;;;;;5116498;28;20286;-45
2023/09/24 00:59:49;;;;;;;18.50;12.57;;;;;;;;;;5115306;28;20202;-45
2023/09/24 01:02:17;;;;;;;16.85;11.15;;;;;;;;;;5098364;28;20206;-45
2023/09/24 01:04:44;;;;;;;19.50;11.35;;;;;;;;;;5116234;28;20329;-45
2023/09/24 01:07:12;;;;;;;19.42;12.52;;;;;;;;;;5116090;28;20650;-46
2023/09/24 01:09:39;;;;;;;23.40;12.70;;;;;;;;;;5115304;28;20221;-45
2023/09/24 01:12:20;;;;;;;22.10;12.70;;;;;;;;;;5115120;28;20205;-45
2023/09/24 01:14:48;;;;;;;19.42;12.15;;;;;;;;;;5114875;28;20209;-44
2023/09/24 01:17:17;;;;;;;20.88;13.07;;;;;;;;;;5114523;28;20698;-45
2023/09/24 01:19:44;;;;;;;21.50;12.55;;;;;;;;;;5116473;28;20201;-46
2023/09/24 01:22:12;;;;;;;23.70;13.20;;;;;;;;;;5116126;28;20212;-46
2023/09/24 01:24:39;;;;;;;21.23;13.30;;;;;;;;;;5115856;28;20193;-45
2023/09/24 01:27:06;;;;;;;25.35;13.48;;;;;;;;;;5116021;28;20247;-45
2023/09/24 01:29:33;;;;;;;23.90;12.73;;;;;;;;;;5114668;28;20225;-45
2023/09/24 01:32:01;;;;;;;20.63;12.93;;;;;;;;;;5115769;28;20202;-45
2023/09/24 01:34:27;;;;;;;30.30;13.32;;;;;;;;;;5115690;28;20282;-46
2023/09/24 01:36:55;;;;;;;24.35;14.23;;;;;;;;;;5114411;28;20225;-45
2023/09/24 01:39:26;;;;;;;27.23;14.88;;;;;;;;;;5114359;28;20194;-44
2023/09/24 01:41:54;;;;;;;23.45;13.35;;;;;;;;;;5114582;28;20201;-45
2023/09/24 01:44:21;;;;;;;24.63;13.57;;;;;;;;;;5115341;28;20209;-45
2023/09/24 01:46:49;;;;;;;26.23;14.50;;;;;;;;;;5115710;28;20250;-46
2023/09/24 01:49:19;;;;;;;30.67;14.75;;;;;;;;;;5114288;28;20209;-45
2023/09/24 01:51:47;;;;;;;22.17;13.25;;;;;;;;;;5114293;28;20251;-46
2023/09/24 01:54:14;;;;;;;28.30;14.23;;;;;;;;;;5115254;28;20198;-46
2023/09/24 01:56:42;;;;;;;24.58;14.50;;;;;;;;;;5115149;28;20251;-46
2023/09/24 01:59:09;;;;;;;25.80;14.63;;;;;;;;;;5114280;28;20285;-45
2023/09/24 02:01:37;;;;;;;27.95;14.70;;;;;;;;;;5114180;28;20194;-45
2023/09/24 02:04:04;;;;;;;25.23;14.70;;;;;;;;;;5114049;28;20293;-45
2023/09/24 02:06:34;;;;;;;25.77;15.07;;;;;;;;;;5115025;28;20209;-46
2023/09/24 02:09:02;;;;;;;27.52;14.82;;;;;;;;;;5096311;28;20199;-45
2023/09/24 02:11:29;;;;;;;26.90;13.75;;;;;;;;;;5113873;28;20209;-45
2023/09/24 02:13:56;;;;;;;24.95;14.00;;;;;;;;;;5113676;28;20198;-45
2023/09/24 02:16:24;;;;;;;22.55;14.63;;;;;;;;;;5115017;28;20283;-45
2023/09/24 02:18:51;;;;;;;27.58;13.52;;;;;;;;;;5114915;28;20229;-46
2023/09/24 02:21:19;;;;;;;23.80;13.52;;;;;;;;;;5114828;28;20209;-45
2023/09/24 02:23:47;;;;;;;26.15;14.60;;;;;;;;;;5114973;28;20251;-45
2023/09/24 02:26:15;;;;;;;25.58;13.38;;;;;;;;;;5113562;28;20206;-44
2023/09/24 02:28:42;;;;;;;25.17;13.90;;;;;;;;;;5114737;28;20558;-46
2023/09/24 02:31:11;;;;;;;27.55;14.50;;;;;;;;;;5114612;28;20664;-44
2023/09/24 02:33:38;;;;;;;21.27;13.32;;;;;;;;;;5113391;28;20650;-45
2023/09/24 02:36:09;;;;;;;22.55;14.13;;;;;;;;;;5114403;28;20202;-46
2023/09/24 02:38:36;;;;;;;23.20;14.70;;;;;;;;;;5114673;28;20198;-46
2023/09/24 02:41:04;;;;;;;22.45;14.25;;;;;;;;;;5113058;28;20202;-45
2023/09/24 02:43:32;;;;;;;24.85;15.23;;;;;;;;;;5113323;28;20212;-45
2023/09/24 02:46:00;;;;;;;27.90;14.48;;;;;;;;;;5113333;28;20259;-44
2023/09/24 02:48:27;;;;;;;22.88;15.50;;;;;;;;;;5114316;28;20205;-45
2023/09/24 02:50:56;;;;;;;26.85;15.02;;;;;;;;;;5113070;28;20210;-45
2023/09/24 02:53:23;;;;;;;23.85;14.00;;;;;;;;;;5114485;28;20202;-45
2023/09/24 02:55:51;;;;;;;21.15;14.88;;;;;;;;;;5113601;28;20198;-45
2023/09/24 02:58:19;;;;;;;22.67;13.90;;;;;;;;;;5114036;28;20628;-45
2023/09/24 03:00:46;;;;;;;23.13;14.35;;;;;;;;;;5113061;28;20213;-46
2023/09/24 03:03:15;;;;;;;23.75;14.70;;;;;;;;;;5112848;28;20658;-45
2023/09/24 03:05:44;;;;;;;24.55;14.70;;;;;;;;;;5114083;28;20709;-45
2023/09/24 03:08:15;;;;;;;23.65;14.27;;;;;;;;;;5114405;28;20224;-45
2023/09/24 03:10:43;;;;;;;22.60;14.43;;;;;;;;;;5114384;28;20206;-45
2023/09/24 03:13:10;;;;;;;23.42;14.25;;;;;;;;;;5113928;28;20719;-44
2023/09/24 03:15:37;;;;;;;29.00;13.85;;;;;;;;;;5112784;28;20201;-45
2023/09/24 03:18:04;;;;;;;22.40;14.43;;;;;;;;;;5112365;28;20245;-44
2023/09/24 03:20:32;;;;;;;28.23;14.27;;;;;;;;;;5112996;28;20190;-45
2023/09/24 03:23:02;;;;;;;27.33;14.88;;;;;;;;;;5112662;28;20256;-45
2023/09/24 03:25:31;;;;;;;19.10;13.80;;;;;;;;;;5112671;28;20711;-45
2023/09/24 03:28:02;;;;;;;21.25;14.25;;;;;;;;;;5112732;28;20226;-47
2023/09/24 03:30:30;;;;;;;25.85;14.50;;;;;;;;;;5112576;28;20704;-44
2023/09/24 03:32:58;;;;;;;22.88;13.95;;;;;;;;;;5112838;28;20201;-45
2023/09/24 03:35:27;;;;;;;21.88;13.48;;;;;;;;;;5112627;28;20209;-44
2023/09/24 03:37:56;;;;;;;24.95;13.20;;;;;;;;;;5112534;28;20233;-45
2023/09/24 03:40:27;;;;;;;22.95;13.35;;;;;;;;;;5112507;28;20208;-45
2023/09/24 03:42:55;;;;;;;21.63;13.43;;;;;;;;;;5113934;28;20711;-45
2023/09/24 03:45:24;;;;;;;23.73;13.18;;;;;;;;;;5112682;28;20217;-45
2023/09/24 03:47:53;;;;;;;19.42;13.73;;;;;;;;;;5112581;28;20625;-46
2023/09/24 03:50:20;;;;;;;19.77;13.27;;;;;;;;;;5113573;28;20198;-45
2023/09/24 03:52:51;;;;;;;21.77;14.40;;;;;;;;;;5113562;28;20689;-44
2023/09/24 03:55:19;;;;;;;21.92;13.20;;;;;;;;;;5111313;28;20243;-46
2023/09/24 03:57:47;;;;;;;21.92;13.88;;;;;;;;;;5111572;28;20573;-46
2023/09/24 04:00:18;;;;;;;21.58;13.52;;;;;;;;;;5110224;28;20198;-45
2023/09/24 04:02:48;;;;;;;24.02;13.00;;;;;;;;;;5110338;28;20204;-48
2023/09/24 04:05:21;;;;;;;20.55;13.07;;;;;;;;;;5110345;28;20251;-45
2023/09/24 04:07:55;;;;;;;20.20;12.90;;;;;;;;;;5113545;28;20205;-46
2023/09/24 04:10:27;;;;;;;21.48;12.93;;;;;;;;;;5114148;28;20594;-46
2023/09/24 04:12:57;;;;;;;20.50;13.70;;;;;;;;;;5107996;28;20259;-45
2023/09/24 04:15:27;;;;;;;22.38;13.43;;;;;;;;;;5105706;28;20205;-45
2023/09/24 04:17:59;;;;;;;22.88;13.65;;;;;;;;;;5117253;28;20253;-45
2023/09/24 04:20:31;;;;;;;18.92;12.93;;;;;;;;;;5116881;28;20208;-45
2023/09/24 04:22:58;;;;;;;19.60;12.50;;;;;;;;;;5117205;28;20217;-45
2023/09/24 04:25:26;;;;;;;20.95;12.70;;;;;;;;;;5117031;28;20202;-46
2023/09/24 04:27:54;;;;;;;18.08;12.40;;;;;;;;;;5116769;28;20617;-46
2023/09/24 04:30:24;;;;;;;21.35;13.32;;;;;;;;;;5116740;28;20210;-44
2023/09/24 04:32:53;;;;;;;18.25;12.05;;;;;;;;;;5116669;28;20194;-46
2023/09/24 04:35:21;;;;;;;21.55;13.15;;;;;;;;;;5116461;28;20558;-45
2023/09/24 04:37:50;;;;;;;19.42;12.75;;;;;;;;;;5117103;27;20232;-44
2023/09/24 04:40:18;;;;;;;18.73;12.60;;;;;;;;;;5116612;28;20206;-46
2023/09/24 04:42:46;;;;;;;23.17;12.70;;;;;;;;;;5116656;28;20685;-45
2023/09/24 04:45:14;;;;;;;22.33;12.25;;;;;;;;;;5116279;28;20202;-46
2023/09/24 04:47:42;;;;;;;19.15;12.60;;;;;;;;;;5116406;28;20658;-47
2023/09/24 04:50:12;;;;;;;20.30;12.63;;;;;;;;;;5116518;28;20261;-45
2023/09/24 04:52:41;;;;;;;21.55;12.55;;;;;;;;;;5116221;28;20669;-45
2023/09/24 04:55:09;;;;;;;17.65;11.85;;;;;;;;;;5116573;28;20198;-44
2023/09/24 04:57:37;;;;;;;19.27;12.27;;;;;;;;;;5116111;28;20243;-45
2023/09/24 05:00:05;;;;;;;19.60;12.95;;;;;;;;;;5116247;28;20202;-45
2023/09/24 05:02:32;;;;;;;19.63;12.43;;;;;;;;;;5116336;28;20742;-45
2023/09/24 05:04:59;;;;;;;16.85;12.23;;;;;;;;;;5116215;28;20205;-46
2023/09/24 05:07:27;;;;;;;23.42;13.77;;;;;;;;;;5116156;28;20233;-45
2023/09/24 05:09:54;;;;;;;19.33;12.30;;;;;;;;;;5116134;28;20202;-45
2023/09/24 05:12:22;;;;;;;19.42;12.55;;;;;;;;;;5116080;28;20262;-45
2023/09/24 05:14:50;;;;;;;17.30;12.07;;;;;;;;;;5116533;28;20556;-45
2023/09/24 05:17:17;;;;;;;22.48;12.93;;;;;;;;;;5115683;28;20238;-45
2023/09/24 05:19:45;;;;;;;18.30;12.20;;;;;;;;;;5116206;28;20194;-45
2023/09/24 05:22:12;;;;;;;20.10;12.63;;;;;;;;;;5116127;28;20236;-45
2023/09/24 05:24:39;;;;;;;19.17;12.73;;;;;;;;;;5115873;28;20206;-45
2023/09/24 05:27:06;;;;;;;18.45;12.57;;;;;;;;;;5115975;28;20221;-45
2023/09/24 05:29:34;;;;;;;18.17;12.27;;;;;;;;;;5115985;28;20213;-44
2023/09/24 05:32:02;;;;;;;20.40;13.30;;;;;;;;;;5115929;28;20224;-47
2023/09/24 05:34:29;;;;;;;21.80;13.00;;;;;;;;;;5115809;28;20202;-45
2023/09/24 05:36:56;;;;;;;20.67;12.75;;;;;;;;;;5115743;28;20267;-45
2023/09/24 05:39:24;;;;;;;22.38;12.65;;;;;;;;;;5115487;28;20194;-45
2023/09/24 05:41:50;;;;;;;17.95;11.98;;;;;;;;;;5115792;28;20197;-44
2023/09/24 05:44:20;;;;;;;20.63;12.07;;;;;;;;;;5111672;28;20198;-46
2023/09/24 05:46:47;;;;;;;18.63;11.75;;;;;;;;;;5108475;27;20204;-45
2023/09/24 05:49:16;;;;;;;17.05;11.85;;;;;;;;;;5103802;28;20187;-47
2023/09/24 05:51:43;;;;;;;19.45;12.32;;;;;;;;;;5104350;28;20205;-46
2023/09/24 05:54:10;;;;;;;19.35;12.07;;;;;;;;;;5109708;28;20209;-45
2023/09/24 05:56:37;;;;;;;22.27;12.25;;;;;;;;;;5108071;28;20286;-45
2023/09/24 05:59:05;;;;;;;17.98;12.57;;;;;;;;;;5105310;28;20221;-45
2023/09/24 06:01:33;;;;;;;17.25;11.13;;;;;;;;;;5108522;28;20194;-46
2023/09/24 06:04:00;;;;;;;16.88;12.43;;;;;;;;;;5104261;28;20195;-47
2023/09/24 06:06:28;;;;;;;19.17;12.00;;;;;;;;;;5103425;28;20195;-46
2023/09/24 06:08:55;;;;;;;19.42;11.23;;;;;;;;;;5114847;28;20206;-45
2023/09/24 06:11:22;;;;;;;13.50;10.30;;;;;;;;;;5105953;28;20230;-47
2023/09/24 06:13:50;;;;;;;14.88;11.23;;;;;;;;;;5105183;28;20221;-47
2023/09/24 06:16:17;;;;;;;15.85;11.38;;;;;;;;;;5107554;28;20241;-46
2023/09/24 06:18:45;;;;;;;17.38;11.25;;;;;;;;;;5100869;28;20237;-48
2023/09/24 06:21:18;;;;;;;16.02;11.00;;;;;;;;;;5107328;27;20310;-46
2023/09/24 06:23:46;;;;;;;15.85;10.80;;;;;;;;;;5101613;28;20248;-45
2023/09/24 06:26:13;;;;;;;17.25;10.98;;;;;;;;;;5100455;27;20222;-48
2023/09/24 06:28:41;;;;;;;14.13;10.68;;;;;;;;;;5099544;28;20218;-47
2023/09/24 06:31:20;;;;;;;15.45;11.07;;;;;;;;;;5102662;27;20226;-48
2023/09/24 06:33:48;;;;;;;15.05;11.00;;;;;;;;;;5113890;28;20623;-45
2023/09/24 06:36:16;;;;;;;17.25;10.43;;;;;;;;;;5113978;28;20225;-46
2023/09/24 06:38:44;;;;;;;14.07;10.13;;;;;;;;;;5113815;27;20237;-45
2023/09/24 06:41:11;;;;;;;14.75;10.50;;;;;;;;;;5113173;28;20968;-46
2023/09/24 06:43:38;;;;;;;16.65;10.63;;;;;;;;;;5106964;27;20221;-46
2023/09/24 06:46:05;;;;;;;17.88;11.07;;;;;;;;;;5101230;28;20309;-46
2023/09/24 06:48:33;;;;;;;17.67;11.63;;;;;;;;;;5104980;28;20271;-45
2023/09/24 06:51:08;;;;;;;18.95;10.20;;;;;;;;;;5102660;28;20222;-45
2023/09/24 06:53:38;;;;;;;13.38;10.10;;;;;;;;;;5093360;28;20222;-45
2023/09/24 06:56:08;;;;;;;13.40;9.30;;;;;;;;;;5094635;28;20241;-45
2023/09/24 06:58:36;;;;;;;15.57;10.40;;;;;;;;;;5103706;27;20576;-46
2023/09/24 07:01:04;;;;;;;13.15;10.27;;;;;;;;;;5104125;28;20222;-46
2023/09/24 07:03:31;;;;;;;16.45;10.55;;;;;;;;;;5101393;28;20213;-48
2023/09/24 07:05:59;;;;;;;14.20;10.52;;;;;;;;;;5101175;28;20214;-48
2023/09/24 07:08:27;;;;;;;16.38;11.18;;;;;;;;;;5095651;28;20234;-47
2023/09/24 07:11:23;;;;;;;13.70;10.25;;;;;;;;;;5092434;28;20306;-48
2023/09/24 07:13:50;;;;;;;14.23;10.45;;;;;;;;;;5093148;28;20628;-51
2023/09/24 07:16:23;;;;;;;12.80;9.75;;;;;;;;;;5102255;28;20249;-48
2023/09/24 07:18:52;;;;;;;16.10;10.23;;;;;;;;;;5109550;28;20228;-48
2023/09/24 07:21:22;;;;;;;16.30;10.05;;;;;;;;;;5103709;28;20210;-48
2023/09/24 07:24:02;;;;;;;15.98;9.98;;;;;;;;;;5103041;28;20214;-49
2023/09/24 07:26:31;;;;;;;17.85;10.57;;;;;;;;;;5101408;28;20226;-46
2023/09/24 07:29:00;;;;;;;13.48;10.48;;;;;;;;;;5092339;28;20703;-48
2023/09/24 07:31:28;;;;;;;14.98;10.52;;;;;;;;;;5095900;28;20633;-45
2023/09/24 07:33:59;;;;;;;14.25;9.82;;;;;;;;;;5102119;28;20214;-47
2023/09/24 07:36:28;;;;;;;15.98;10.52;;;;;;;;;;5103619;28;20274;-47
2023/09/24 07:39:05;;;;;;;14.50;11.07;;;;;;;;;;5104383;27;20234;-46
2023/09/24 07:41:33;;;;;;;17.65;10.90;;;;;;;;;;5104219;28;20219;-46
2023/09/24 07:44:00;;;;;;;16.20;11.32;;;;;;;;;;5105953;27;20312;-47
2023/09/24 07:46:28;;;;;;;15.73;11.27;;;;;;;;;;5106322;28;20267;-47
2023/09/24 07:48:55;;;;;;;21.00;11.32;;;;;;;;;;5106617;27;20218;-50
2023/09/24 07:51:22;;;;;;;15.15;10.48;;;;;;;;;;5107157;28;20210;-48
2023/09/24 07:53:50;;;;;;;18.30;10.98;;;;;;;;;;5104643;27;20682;-45
2023/09/24 07:56:20;;;;;;;15.13;11.30;;;;;;;;;;5106065;28;20682;-48
2023/09/24 07:58:48;;;;;;;16.00;10.85;;;;;;;;;;5107695;28;20241;-46
2023/09/24 08:01:15;;;;;;;18.05;11.68;;;;;;;;;;5108172;28;20587;-45
2023/09/24 08:03:44;;;;;;;14.98;10.50;;;;;;;;;;5105645;27;20570;-47
2023/09/24 08:06:12;;;;;;;15.38;11.27;;;;;;;;;;5105425;28;20689;-45
2023/09/24 08:08:40;;;;;;;16.70;11.55;;;;;;;;;;5105460;27;20229;-45
2023/09/24 08:11:22;;;;;;;16.83;10.82;;;;;;;;;;5104005;28;20779;-46
2023/09/24 08:13:50;;;;;;;14.60;11.13;;;;;;;;;;5104806;27;20215;-46
2023/09/24 08:16:20;;;;;;;14.20;10.93;;;;;;;;;;5104700;28;20214;-45
2023/09/24 08:18:49;;;;;;;17.90;11.43;;;;;;;;;;5105805;28;20223;-45
2023/09/24 08:21:19;;;;;;;16.75;11.65;;;;;;;;;;5105809;28;20224;-45
2023/09/24 08:23:46;;;;;;;16.40;11.52;;;;;;;;;;5106672;27;20216;-45
2023/09/24 08:26:15;;;;;;;14.05;10.68;;;;;;;;;;5105146;28;20214;-45
2023/09/24 08:28:43;;;;;;;13.80;10.07;;;;;;;;;;5107331;28;20206;-46
2023/09/24 08:31:11;;;;;;;16.27;11.35;;;;;;;;;;5105813;28;20187;-46
2023/09/24 08:33:38;;;;;;;18.73;11.80;;;;;;;;;;5105955;28;20202;-46
2023/09/24 08:36:12;;;;;;;17.73;11.80;;;;;;;;;;5107237;28;20292;-45
2023/09/24 08:38:39;;;;;;;21.27;12.20;;;;;;;;;;5107297;28;20221;-46
2023/09/24 08:41:11;;;;;;;16.70;11.52;;;;;;;;;;5098967;28;20194;-46
2023/09/24 08:43:41;;;;;;;16.88;11.25;;;;;;;;;;5104614;28;20229;-45
2023/09/24 08:46:10;;;;;;;17.27;10.98;;;;;;;;;;5106879;28;20225;-45
2023/09/24 08:48:39;;;;;;;14.85;11.07;;;;;;;;;;5106506;28;20679;-47
2023/09/24 08:51:08;;;;;;;17.38;12.02;;;;;;;;;;5105019;28;20194;-45
2023/09/24 08:53:37;;;;;;;18.58;11.60;;;;;;;;;;5104471;27;20190;-45
2023/09/24 08:56:04;;;;;;;14.50;10.93;;;;;;;;;;5106905;28;20190;-46
2023/09/24 08:58:32;;;;;;;14.45;11.43;;;;;;;;;;5105843;28;20234;-46
2023/09/24 09:01:00;;;;;;;14.02;10.60;;;;;;;;;;5104577;28;20199;-45
2023/09/24 09:03:28;;;;;;;16.00;11.73;;;;;;;;;;5104216;28;20195;-44
2023/09/24 09:05:56;;;;;;;15.95;12.20;;;;;;;;;;5104557;28;20646;-44
2023/09/24 09:08:23;;;;;;;18.65;11.13;;;;;;;;;;5105834;28;20213;-45
2023/09/24 09:10:50;;;;;;;15.48;11.15;;;;;;;;;;5096956;27;20686;-46
2023/09/24 09:13:18;;;;;;;16.25;11.27;;;;;;;;;;5112248;28;20218;-46
2023/09/24 09:15:46;;;;;;;16.17;11.73;;;;;;;;;;5101387;28;20222;-45
2023/09/24 09:18:25;;;;;;;17.52;12.65;;;;;;;;;;5099901;28;20706;-47
2023/09/24 09:20:59;;;;;;;16.38;11.90;;;;;;;;;;5110451;27;20233;-47
2023/09/24 09:23:31;;;;;;;16.92;12.48;;;;;;;;;;5114918;28;20225;-46
2023/09/24 09:25:59;;;;;;;15.38;11.38;;;;;;;;;;5110421;28;20241;-46
2023/09/24 09:28:28;;;;;;;15.27;11.05;;;;;;;;;;5113494;28;20310;-46
2023/09/24 09:31:10;;;;;;;16.13;11.00;;;;;;;;;;5106368;28;20227;-48
2023/09/24 09:33:44;;;;;;;16.58;11.25;;;;;;;;;;5100471;28;20631;-45
2023/09/24 09:36:28;;;;;;;19.45;12.60;;;;;;;;;;5101139;28;20231;-49
2023/09/24 09:39:00;;;;;;;17.70;12.63;;;;;;;;;;5111783;28;20226;-46
2023/09/24 09:41:29;;;;;;;17.90;12.93;;;;;;;;;;5114233;27;20299;-45
2023/09/24 09:44:02;;;;;;;22.13;11.48;;;;;;;;;;5114059;28;20230;-44
2023/09/24 09:46:30;;;;;;;18.10;12.18;;;;;;;;;;5113641;28;20226;-45
2023/09/24 09:49:07;;;;;;;17.98;12.27;;;;;;;;;;5107502;28;20222;-47
2023/09/24 09:51:48;;;;;;;13.90;11.57;;;;;;;;;;5109398;28;20225;-47
2023/09/24 09:54:17;;;;;;;18.33;11.57;;;;;;;;;;5114560;28;20225;-50
2023/09/24 09:56:45;;;;;;;15.45;11.73;;;;;;;;;;5108217;28;20237;-45
2023/09/24 09:59:13;;;;;;;18.02;12.90;;;;;;;;;;5099424;28;20230;-46
2023/09/24 10:01:41;;;;;;;14.35;11.30;;;;;;;;;;5105133;28;20218;-47
2023/09/24 10:04:08;;;;;;;18.00;11.73;;;;;;;;;;5103329;27;20834;-54
2023/09/24 10:06:38;;;;;;;14.90;11.15;;;;;;;;;;5105225;28;20635;-48
2023/09/24 10:09:24;;;;;;;13.90;10.60;;;;;;;;;;5104407;28;20229;-48
2023/09/24 10:11:53;;;;;;;16.00;11.48;;;;;;;;;;5104978;28;20597;-49
2023/09/24 10:14:42;;;;;;;16.27;12.35;;;;;;;;;;5103426;27;20218;-48
2023/09/24 10:17:15;;;;;;;20.50;12.35;;;;;;;;;;5103463;28;20715;-47
2023/09/24 10:19:53;;;;;;;16.67;11.32;;;;;;;;;;5101855;28;20230;-46
2023/09/24 10:22:34;;;;;;;19.65;11.60;;;;;;;;;;5102543;28;20662;-55
2023/09/24 10:25:30;;;;;;;16.08;11.55;;;;;;;;;;5102807;28;20595;-51
2023/09/24 10:28:04;;;;;;;16.60;11.52;;;;;;;;;;5100581;27;20699;-49
2023/09/24 10:31:05;;;;;;;15.23;11.38;;;;;;;;;;5099875;28;20217;-48
2023/09/24 10:33:51;;;;;;;13.70;11.13;;;;;;;;;;5092110;28;20226;-47
2023/09/24 10:36:34;;;;;;;14.98;10.90;;;;;;;;;;5099516;28;20222;-47
2023/09/24 10:39:05;;;;;;;15.65;11.43;;;;;;;;;;5100204;28;20214;-54
2023/09/24 10:41:34;;;;;;;13.18;10.75;;;;;;;;;;5100224;28;20226;-50
2023/09/24 10:44:20;;;;;;;14.75;10.60;;;;;;;;;;5107521;27;20237;-47
2023/09/24 10:46:48;;;;;;;20.23;11.10;;;;;;;;;;5102691;28;20377;-46
2023/09/24 10:49:26;;;;;;;15.93;10.95;;;;;;;;;;5101675;27;20214;-49
2023/09/24 10:52:00;;;;;;;14.50;10.52;;;;;;;;;;5103724;28;20222;-47
2023/09/24 10:54:27;;;;;;;13.57;10.30;;;;;;;;;;5102928;28;20241;-48
2023/09/24 10:56:57;;;;;;;15.52;10.82;;;;;;;;;;5100800;28;20244;-49
2023/09/24 10:59:34;;;;;;;15.30;10.32;;;;;;;;;;5106483;28;20226;-46
2023/09/24 11:02:15;;;;;;;10.88;8.57;;;;;;;;;;5103987;28;20224;-49
2023/09/24 11:04:45;;;;;;;13.75;9.63;;;;;;;;;;5102529;27;20219;-47
2023/09/24 11:07:14;;;;;;;12.32;9.40;;;;;;;;;;5102414;28;20218;-46
2023/09/24 11:09:49;;;;;;;12.10;8.68;;;;;;;;;;5101841;27;20728;-46
2023/09/24 11:12:16;;;;;;;12.27;9.18;;;;;;;;;;5100888;28;20266;-47
2023/09/24 11:14:57;;;;;;;14.45;9.43;;;;;;;;;;5109749;27;20759;-52
2023/09/24 11:17:41;;;;;;;12.18;8.65;;;;;;;;;;5105832;28;20237;-47
2023/09/24 11:20:09;;;;;;;15.77;9.50;;;;;;;;;;5100757;28;20251;-48
2023/09/24 11:22:37;;;;;;;12.82;9.48;;;;;;;;;;5103477;28;20217;-50
2023/09/24 11:25:14;;;;;;;9.65;8.38;;;;;;;;;;5102332;27;20226;-51
2023/09/24 11:27:47;;;;;;;10.70;8.77;;;;;;;;;;5104493;28;20221;-48
2023/09/24 11:30:16;;;;;;;9.88;7.93;;;;;;;;;;5106195;27;20308;-47
2023/09/24 11:32:45;;;;;;;9.75;8.10;;;;;;;;;;5112765;28;20713;-49
2023/09/24 11:35:14;;;;;;;13.30;9.10;;;;;;;;;;5106573;27;20272;-47
2023/09/24 11:37:51;;;;;;;14.20;8.52;;;;;;;;;;5104036;28;20264;-51
2023/09/24 11:40:24;;;;;;;12.20;8.85;;;;;;;;;;5099750;28;20235;-48
2023/09/24 11:42:59;;;;;;;11.32;7.72;;;;;;;;;;5102460;28;20547;-50
2023/09/24 11:45:49;;;;;;;12.65;7.75;;;;;;;;;;5099703;28;20255;-48
2023/09/24 11:48:20;;;;;;;18.67;7.95;;;;;;;;;;5102952;28;20221;-51
2023/09/24 11:51:05;;;;;;;10.05;7.50;;;;;;;;;;5100800;27;20296;-49
2023/09/24 11:53:33;;;;;;;14.35;8.40;;;;;;;;;;5101646;28;20305;-48
2023/09/24 11:56:00;;;;;;;13.23;8.48;;;;;;;;;;5101968;28;20754;-48
2023/09/24 11:58:27;;;;;;;14.35;9.50;;;;;;;;;;5103298;28;20218;-51
2023/09/24 12:00:57;;;;;;;11.20;9.20;;;;;;;;;;5100866;27;20226;-49
2023/09/24 12:03:25;;;;;;;16.73;9.68;;;;;;;;;;5104827;28;20698;-48
2023/09/24 12:05:52;;;;;;;14.68;9.60;;;;;;;;;;5101907;27;20276;-49
2023/09/24 12:08:20;;;;;;;10.75;8.20;;;;;;;;;;5102132;28;20259;-54
2023/09/24 12:10:52;;;;;;;11.52;8.43;;;;;;;;;;5101163;28;20249;-50
2023/09/24 12:13:20;;;;;;;11.98;7.97;;;;;;;;;;5104551;28;20214;-53
2023/09/24 12:15:47;;;;;;;8.65;7.32;;;;;;;;;;5100638;28;20716;-50
2023/09/24 12:18:14;;;;;;;8.30;6.93;;;;;;;;;;5101464;28;21421;-49
2023/09/24 12:20:42;;;;;;;8.68;6.97;;;;;;;;;;5099724;27;20269;-49
2023/09/24 12:23:11;;;;;;;11.75;7.43;;;;;;;;;;5107095;28;20222;-53
2023/09/24 12:25:40;;;;;;;9.77;8.02;;;;;;;;;;5100846;28;20303;-52
2023/09/24 12:28:13;;;;;;;12.85;7.25;;;;;;;;;;5103950;28;20229;-52
2023/09/24 12:30:42;;;;;;;10.45;7.47;;;;;;;;;;5115724;27;20237;-50
2023/09/24 12:33:09;;;;;;;8.32;6.60;;;;;;;;;;5112461;28;20219;-53
2023/09/24 12:35:41;;;;;;;9.55;6.35;;;;;;;;;;5105167;27;20229;-49
2023/09/24 12:38:09;;;;;;;9.50;6.47;;;;;;;;;;5106256;28;20218;-50
2023/09/24 12:40:36;;;;;;;10.80;6.22;;;;;;;;;;5103769;28;20676;-51
2023/09/24 12:43:04;;;;;;;7.75;6.55;;;;;;;;;;5104647;28;20218;-51
2023/09/24 12:45:31;;;;;;;7.72;6.30;;;;;;;;;;5096065;28;20229;-50
2023/09/24 12:47:58;;;;;;;7.75;5.70;;;;;;;;;;5094663;28;20219;-47
2023/09/24 12:50:26;;;;;;;8.95;6.90;;;;;;;;;;5106114;28;20217;-47
2023/09/24 12:52:54;;;;;;;9.63;5.40;;;;;;;;;;5098074;28;20222;-48
2023/09/24 12:55:21;;;;;;;8.10;5.72;;;;;;;;;;5095133;28;20250;-47
2023/09/24 12:57:49;;;;;;;8.45;5.90;;;;;;;;;;5104340;28;20225;-49
2023/09/24 13:00:17;;;;;;;6.80;5.00;;;;;;;;;;5109121;28;20237;-48
2023/09/24 13:02:46;;;;;;;10.18;5.05;;;;;;;;;;5095605;28;20227;-48
2023/09/24 13:05:16;;;;;;;7.20;5.03;;;;;;;;;;5095109;28;20231;-45
2023/09/24 13:07:45;;;;;;;7.07;4.40;;;;;;;;;;5105986;28;20709;-46
2023/09/24 13:10:17;;;;;;;10.63;4.93;;;;;;;;;;5105407;28;20296;-48
2023/09/24 13:12:44;;;;;;;8.18;4.72;;;;;;;;;;5105599;28;20222;-46
2023/09/24 13:15:12;;;;;;;5.43;3.80;;;;;;;;;;5105546;28;20213;-44
2023/09/24 13:17:40;;;;;;;4.65;3.90;;;;;;;;;;5102329;27;20243;-46
2023/09/24 13:20:10;;;;;;;6.68;3.53;;;;;;;;;;5103703;28;20238;-46
2023/09/24 13:22:38;;;;;;;5.80;3.75;;;;;;;;;;5106077;27;20218;-46
2023/09/24 13:25:06;;;;;;;7.18;3.95;;;;;;;;;;5102776;28;20222;-47
2023/09/24 13:27:35;;;;;;;5.72;4.38;;;;;;;;;;5097724;28;20226;-47
2023/09/24 13:30:08;;;;;;;4.72;3.65;;;;;;;;;;5114455;28;20241;-47
2023/09/24 13:32:36;;;;;;;4.18;3.55;;;;;;;;;;5106009;27;20226;-47
2023/09/24 13:35:06;;;;;;;5.60;3.65;;;;;;;;;;5114760;28;20213;-47
2023/09/24 13:37:35;;;;;;;5.43;3.80;;;;;;;;;;5103659;28;20687;-45
2023/09/24 13:40:04;;;;;;;5.43;3.88;;;;;;;;;;5093711;28;20714;-43
2023/09/24 13:42:33;;;;;;;7.57;4.10;;;;;;;;;;5098978;28;20229;-45
2023/09/24 13:45:03;;;;;;;6.38;3.90;;;;;;;;;;5114652;28;20665;-45
2023/09/24 13:47:32;;;;;;;4.47;3.65;;;;;;;;;;5115291;28;20252;-45
2023/09/24 13:50:01;;;;;;;5.47;3.92;;;;;;;;;;5114504;28;20277;-46
2023/09/24 13:52:28;;;;;;;6.47;4.13;;;;;;;;;;5115102;28;20213;-48
2023/09/24 13:54:55;;;;;;;6.50;3.75;;;;;;;;;;5114663;28;20681;-49
2023/09/24 13:57:22;;;;;;;6.22;3.47;;;;;;;;;;5114606;28;20214;-48
2023/09/24 13:59:50;;;;;;;5.45;3.47;;;;;;;;;;5114683;28;20226;-47
2023/09/24 14:02:19;;;;;;;5.55;3.63;;;;;;;;;;5114778;28;20630;-45
2023/09/24 14:04:47;;;;;;;3.78;3.33;;;;;;;;;;5108990;28;20191;-45
2023/09/24 14:07:16;;;;;;;6.28;4.07;;;;;;;;;;5104694;28;20206;-46
2023/09/24 14:12:30;;;;;;;5.00;3.33;;;;;;;;;;5106659;28;20300;-47
2023/09/24 14:14:57;;;;;;;4.05;3.15;;;;;;;;;;5105942;27;20213;-46
2023/09/24 14:17:25;;;;;;;4.50;3.30;;;;;;;;;;5105762;28;20233;-47
2023/09/24 14:19:57;;;;;;;4.43;3.35;;;;;;;;;;5100514;27;20709;-46
2023/09/24 14:22:24;;;;;;;5.25;3.50;;;;;;;;;;5102230;28;20277;-46
2023/09/24 14:24:52;;;;;;;5.50;3.30;;;;;;;;;;5103245;28;20245;-45
2023/09/24 14:27:19;;;;;;;5.90;3.78;;;;;;;;;;5107072;28;20960;-46
2023/09/24 14:29:47;;;;;;;5.00;3.25;;;;;;;;;;5104224;27;20225;-47
2023/09/24 14:32:15;;;;;;;5.25;4.00;;;;;;;;;;5101717;28;20220;-50
2023/09/24 14:34:42;;;;;;;4.82;3.75;;;;;;;;;;5106735;28;20210;-45
2023/09/24 14:37:10;;;;;;;5.75;3.55;;;;;;;;;;5099713;28;20215;-45
2023/09/24 14:39:38;;;;;;;6.32;3.70;;;;;;;;;;5099669;28;20231;-45